Time,TemperatureF,DewpointF,PressureIn,WindDirection,WindDirectionDegrees,WindSpeedMPH,WindSpeedGustMPH,Humidity,HourlyPrecipIn,Conditions,Clouds,dailyrainin,SolarRadiationWatts/m^2,SoftwareType,DateUTC
2013-07-14 00:02:00,78.0,57.0,-100.00,ESE,115,1.0,4.0,48,0.00,,,0.00,0.000000,,2013-07-14 05:02:00,
2013-07-14 00:23:00,79.0,62.0,-100.00,SE,138,2.0,5.0,56,0.00,,,0.00,0.000000,,2013-07-14 05:23:00,
2013-07-14 00:32:00,79.0,62.0,-100.00,SE,138,2.0,5.0,56,0.00,,,0.00,0.000000,,2013-07-14 05:32:00,
2013-07-14 00:43:00,79.0,62.0,-100.00,SE,138,2.0,5.0,56,0.00,,,0.00,0.000000,,2013-07-14 05:43:00,
2013-07-14 00:53:00,79.0,62.0,-100.00,SE,138,2.0,5.0,56,0.00,,,0.00,0.000000,,2013-07-14 05:53:00,
2013-07-14 01:01:00,79.0,62.0,-100.00,SE,138,2.0,5.0,56,0.00,,,0.00,0.000000,,2013-07-14 06:01:00,
2013-07-14 01:22:00,77.0,63.0,-100.00,SE,141,0.0,5.0,63,0.00,,,0.00,0.000000,,2013-07-14 06:22:00,
2013-07-14 01:32:00,77.0,63.0,-100.00,SE,141,0.0,5.0,63,0.00,,,0.00,0.000000,,2013-07-14 06:32:00,
2013-07-14 01:42:00,77.0,63.0,-100.00,SE,141,0.0,5.0,63,0.00,,,0.00,0.000000,,2013-07-14 06:42:00,
2013-07-14 01:53:00,77.0,63.0,-100.00,SE,141,0.0,5.0,63,0.00,,,0.00,0.000000,,2013-07-14 06:53:00,
2013-07-14 02:02:00,77.0,63.0,-100.00,SE,141,0.0,5.0,63,0.00,,,0.00,0.000000,,2013-07-14 07:02:00,
2013-07-14 02:22:00,73.0,64.0,-100.00,SW,231,0.0,0.0,74,0.00,,,0.00,0.000000,,2013-07-14 07:22:00,
2013-07-14 02:33:00,73.0,64.0,-100.00,SW,231,0.0,0.0,74,0.00,,,0.00,0.000000,,2013-07-14 07:33:00,
2013-07-14 02:43:00,73.0,64.0,-100.00,SW,231,0.0,0.0,74,0.00,,,0.00,0.000000,,2013-07-14 07:43:00,
2013-07-14 02:53:00,73.0,64.0,-100.00,SW,231,0.0,0.0,74,0.00,,,0.00,0.000000,,2013-07-14 07:53:00,
2013-07-14 03:01:00,73.0,64.0,-100.00,SW,231,0.0,0.0,74,0.00,,,0.00,0.000000,,2013-07-14 08:01:00,
2013-07-14 03:22:00,72.0,65.0,-100.00,SSW,204,1.0,4.0,79,0.00,,,0.00,0.000000,,2013-07-14 08:22:00,
2013-07-14 03:32:00,72.0,65.0,-100.00,SSW,204,1.0,4.0,79,0.00,,,0.00,0.000000,,2013-07-14 08:32:00,
2013-07-14 03:42:00,72.0,65.0,-100.00,SSW,204,1.0,4.0,79,0.00,,,0.00,0.000000,,2013-07-14 08:42:00,
2013-07-14 03:53:00,72.0,65.0,-100.00,SSW,204,1.0,4.0,79,0.00,,,0.00,0.000000,,2013-07-14 08:53:00,
2013-07-14 04:01:00,72.0,65.0,-100.00,SSW,204,1.0,4.0,79,0.00,,,0.00,0.000000,,2013-07-14 09:01:00,
2013-07-14 04:22:00,73.0,63.0,-100.00,East,97,0.0,2.0,72,0.00,,,0.00,0.000000,,2013-07-14 09:22:00,
2013-07-14 04:32:00,73.0,63.0,-100.00,East,97,0.0,2.0,72,0.00,,,0.00,0.000000,,2013-07-14 09:32:00,
2013-07-14 04:42:00,73.0,63.0,-100.00,East,97,0.0,2.0,72,0.00,,,0.00,0.000000,,2013-07-14 09:42:00,
2013-07-14 04:53:00,73.0,63.0,-100.00,East,97,0.0,2.0,72,0.00,,,0.00,0.000000,,2013-07-14 09:53:00,
2013-07-14 05:01:00,73.0,63.0,-100.00,East,97,0.0,2.0,72,0.00,,,0.00,0.000000,,2013-07-14 10:01:00,
2013-07-14 05:22:00,74.0,63.0,-100.00,ESE,111,3.0,6.0,68,0.00,,,0.00,0.000000,,2013-07-14 10:22:00,
2013-07-14 05:32:00,74.0,63.0,-100.00,ESE,111,3.0,6.0,68,0.00,,,0.00,0.000000,,2013-07-14 10:32:00,
2013-07-14 05:42:00,74.0,63.0,-100.00,ESE,111,3.0,6.0,68,0.00,,,0.00,0.000000,,2013-07-14 10:42:00,
2013-07-14 05:53:00,74.0,63.0,-100.00,ESE,111,3.0,6.0,68,0.00,,,0.00,0.000000,,2013-07-14 10:53:00,
2013-07-14 06:02:00,74.0,63.0,-100.00,ESE,111,3.0,6.0,68,0.00,,,0.00,0.000000,,2013-07-14 11:02:00,
2013-07-14 06:22:00,75.0,63.0,-100.00,ESE,123,4.0,9.0,67,0.00,,,0.00,0.000000,,2013-07-14 11:22:00,
2013-07-14 06:32:00,75.0,63.0,-100.00,ESE,123,4.0,9.0,67,0.00,,,0.00,0.000000,,2013-07-14 11:32:00,
2013-07-14 06:43:00,75.0,63.0,-100.00,ESE,123,4.0,9.0,67,0.00,,,0.00,0.000000,,2013-07-14 11:43:00,
2013-07-14 06:53:00,75.0,63.0,-100.00,ESE,123,4.0,9.0,67,0.00,,,0.00,0.000000,,2013-07-14 11:53:00,
2013-07-14 07:02:00,75.0,63.0,-100.00,ESE,123,4.0,9.0,67,0.00,,,0.00,0.000000,,2013-07-14 12:02:00,
2013-07-14 07:22:00,75.0,65.0,-100.00,SE,130,3.0,6.0,70,0.00,,,0.00,6.000000,,2013-07-14 12:22:00,
2013-07-14 07:33:00,75.0,65.0,-100.00,SE,130,3.0,6.0,70,0.00,,,0.00,6.000000,,2013-07-14 12:33:00,
2013-07-14 07:43:00,75.0,65.0,-100.00,SE,130,3.0,6.0,70,0.00,,,0.00,6.000000,,2013-07-14 12:43:00,
2013-07-14 07:53:00,75.0,65.0,-100.00,SE,130,3.0,6.0,70,0.00,,,0.00,6.000000,,2013-07-14 12:53:00,
2013-07-14 08:01:00,75.0,65.0,-100.00,SE,130,3.0,6.0,70,0.00,,,0.00,6.000000,,2013-07-14 13:01:00,
2013-07-14 08:32:00,75.0,66.0,-100.00,SE,144,3.0,6.0,73,0.00,,,0.00,42.000000,,2013-07-14 13:32:00,
2013-07-14 08:42:00,75.0,66.0,-100.00,SE,144,3.0,6.0,73,0.00,,,0.00,42.000000,,2013-07-14 13:42:00,
2013-07-14 08:53:00,75.0,66.0,-100.00,SE,144,3.0,6.0,73,0.00,,,0.00,42.000000,,2013-07-14 13:53:00,
2013-07-14 09:02:00,75.0,66.0,-100.00,SE,144,3.0,6.0,73,0.00,,,0.00,42.000000,,2013-07-14 14:02:00,
2013-07-14 09:23:00,78.0,67.0,-100.00,SE,126,7.0,10.0,70,0.00,,,0.00,210.000000,,2013-07-14 14:23:00,
2013-07-14 09:33:00,78.0,67.0,-100.00,SE,126,7.0,10.0,70,0.00,,,0.00,210.000000,,2013-07-14 14:33:00,
2013-07-14 09:43:00,78.0,67.0,-100.00,SE,126,7.0,10.0,70,0.00,,,0.00,210.000000,,2013-07-14 14:43:00,
2013-07-14 09:53:00,78.0,67.0,-100.00,SE,126,7.0,10.0,70,0.00,,,0.00,210.000000,,2013-07-14 14:53:00,
2013-07-14 10:01:00,78.0,67.0,-100.00,SE,126,7.0,10.0,70,0.00,,,0.00,210.000000,,2013-07-14 15:01:00,
2013-07-14 11:22:00,80.0,69.0,-100.00,SSE,148,4.0,8.0,69,-99.99,,,0.00,202.000000,,2013-07-14 16:22:00,
2013-07-14 11:32:00,80.0,69.0,-100.00,SSE,148,4.0,8.0,69,-99.99,,,0.00,202.000000,,2013-07-14 16:32:00,
2013-07-14 11:43:00,80.0,69.0,-100.00,SSE,148,4.0,8.0,69,-99.99,,,0.00,202.000000,,2013-07-14 16:43:00,
2013-07-14 11:53:00,80.0,69.0,-100.00,SSE,148,4.0,8.0,69,-99.99,,,0.00,202.000000,,2013-07-14 16:53:00,
2013-07-14 12:02:00,80.0,69.0,-100.00,SSE,148,4.0,8.0,69,-99.99,,,0.00,202.000000,,2013-07-14 17:02:00,
2013-07-14 12:22:00,82.0,69.0,-100.00,SE,126,6.0,9.0,66,0.00,,,0.00,356.000000,,2013-07-14 17:22:00,
2013-07-14 12:32:00,82.0,69.0,-100.00,SE,126,6.0,9.0,66,0.00,,,0.00,356.000000,,2013-07-14 17:32:00,
2013-07-14 12:43:00,82.0,69.0,-100.00,SE,126,6.0,9.0,66,0.00,,,0.00,356.000000,,2013-07-14 17:43:00,
2013-07-14 12:53:00,82.0,69.0,-100.00,SE,126,6.0,9.0,66,0.00,,,0.00,356.000000,,2013-07-14 17:53:00,
2013-07-14 13:01:00,82.0,69.0,-100.00,SE,126,6.0,9.0,66,0.00,,,0.00,356.000000,,2013-07-14 18:01:00,
2013-07-14 13:22:00,83.0,72.0,-100.00,SE,125,5.0,10.0,69,0.00,,,0.00,343.000000,,2013-07-14 18:22:00,
2013-07-14 13:32:00,83.0,72.0,-100.00,SE,125,5.0,10.0,69,0.00,,,0.00,343.000000,,2013-07-14 18:32:00,
2013-07-14 13:42:00,83.0,72.0,-100.00,SE,125,5.0,10.0,69,0.00,,,0.00,343.000000,,2013-07-14 18:42:00,
2013-07-14 13:52:00,83.0,72.0,-100.00,SE,125,5.0,10.0,69,0.00,,,0.00,343.000000,,2013-07-14 18:52:00,
2013-07-14 14:01:00,83.0,72.0,-100.00,SE,125,5.0,10.0,69,0.00,,,0.00,343.000000,,2013-07-14 19:01:00,
2013-07-14 14:22:00,84.0,73.0,-100.00,SE,140,5.0,8.0,69,0.00,,,0.00,256.000000,,2013-07-14 19:22:00,
2013-07-14 14:32:00,84.0,73.0,-100.00,SE,140,5.0,8.0,69,0.00,,,0.00,256.000000,,2013-07-14 19:32:00,
2013-07-14 14:43:00,84.0,73.0,-100.00,SE,140,5.0,8.0,69,0.00,,,0.00,256.000000,,2013-07-14 19:43:00,
2013-07-14 14:53:00,84.0,73.0,-100.00,SE,140,5.0,8.0,69,0.00,,,0.00,256.000000,,2013-07-14 19:53:00,
2013-07-14 15:02:00,84.0,73.0,-100.00,SE,140,5.0,8.0,69,0.00,,,0.00,256.000000,,2013-07-14 20:02:00,
2013-07-14 15:22:00,85.0,72.0,-100.00,SE,146,4.0,9.0,66,0.00,,,0.00,367.000000,,2013-07-14 20:22:00,
2013-07-14 15:32:00,85.0,72.0,-100.00,SE,146,4.0,9.0,66,0.00,,,0.00,367.000000,,2013-07-14 20:32:00,
2013-07-14 15:43:00,85.0,72.0,-100.00,SE,146,4.0,9.0,66,0.00,,,0.00,367.000000,,2013-07-14 20:43:00,
2013-07-14 15:53:00,85.0,72.0,-100.00,SE,146,4.0,9.0,66,0.00,,,0.00,367.000000,,2013-07-14 20:53:00,
2013-07-14 16:02:00,85.0,72.0,-100.00,SE,146,4.0,9.0,66,0.00,,,0.00,367.000000,,2013-07-14 21:02:00,
2013-07-14 16:22:00,87.0,73.0,-100.00,West,281,2.0,7.0,63,0.00,,,0.00,360.000000,,2013-07-14 21:22:00,
2013-07-14 16:32:00,87.0,73.0,-100.00,West,281,2.0,7.0,63,0.00,,,0.00,360.000000,,2013-07-14 21:32:00,
2013-07-14 16:43:00,87.0,73.0,-100.00,West,281,2.0,7.0,63,0.00,,,0.00,360.000000,,2013-07-14 21:43:00,
2013-07-14 16:53:00,87.0,73.0,-100.00,West,281,2.0,7.0,63,0.00,,,0.00,360.000000,,2013-07-14 21:53:00,
2013-07-14 17:01:00,87.0,73.0,-100.00,West,281,2.0,7.0,63,0.00,,,0.00,360.000000,,2013-07-14 22:01:00,
2013-07-14 17:22:00,85.0,70.0,-100.00,South,169,3.0,5.0,62,0.00,,,0.00,260.000000,,2013-07-14 22:22:00,
2013-07-14 17:32:00,85.0,70.0,-100.00,South,169,3.0,5.0,62,0.00,,,0.00,260.000000,,2013-07-14 22:32:00,
2013-07-14 17:42:00,85.0,70.0,-100.00,South,169,3.0,5.0,62,0.00,,,0.00,260.000000,,2013-07-14 22:42:00,
2013-07-14 17:53:00,85.0,70.0,-100.00,South,169,3.0,5.0,62,0.00,,,0.00,260.000000,,2013-07-14 22:53:00,
2013-07-14 18:01:00,85.0,70.0,-100.00,South,169,3.0,5.0,62,0.00,,,0.00,260.000000,,2013-07-14 23:01:00,
2013-07-14 18:32:00,83.0,70.0,-100.00,NW,317,5.0,8.0,64,0.00,,,0.00,134.000000,,2013-07-14 23:32:00,
2013-07-14 18:42:00,83.0,70.0,-100.00,NW,317,5.0,8.0,64,0.00,,,0.00,134.000000,,2013-07-14 23:42:00,
2013-07-14 18:53:00,83.0,70.0,-100.00,NW,317,5.0,8.0,64,0.00,,,0.00,134.000000,,2013-07-14 23:53:00,
2013-07-14 19:02:00,83.0,70.0,-100.00,NW,317,5.0,8.0,64,0.00,,,0.00,134.000000,,2013-07-15 00:02:00,
2013-07-14 19:22:00,81.0,73.0,-100.00,ENE,62,4.0,10.0,77,0.00,,,0.00,83.000000,,2013-07-15 00:22:00,
2013-07-14 19:32:00,81.0,73.0,-100.00,ENE,62,4.0,10.0,77,0.00,,,0.00,83.000000,,2013-07-15 00:32:00,
2013-07-14 19:43:00,81.0,73.0,-100.00,ENE,62,4.0,10.0,77,0.00,,,0.00,83.000000,,2013-07-15 00:43:00,
2013-07-14 19:53:00,81.0,73.0,-100.00,ENE,62,4.0,10.0,77,0.00,,,0.00,83.000000,,2013-07-15 00:53:00,
2013-07-14 20:01:00,81.0,73.0,-100.00,ENE,62,4.0,10.0,77,0.00,,,0.00,83.000000,,2013-07-15 01:01:00,
2013-07-14 20:22:00,78.0,69.0,-100.00,East,89,4.0,8.0,73,0.00,,,0.00,15.000000,,2013-07-15 01:22:00,
2013-07-14 20:32:00,78.0,69.0,-100.00,East,89,4.0,8.0,73,0.00,,,0.00,15.000000,,2013-07-15 01:32:00,
2013-07-14 20:43:00,78.0,69.0,-100.00,East,89,4.0,8.0,73,0.00,,,0.00,15.000000,,2013-07-15 01:43:00,
2013-07-14 20:53:00,78.0,69.0,-100.00,East,89,4.0,8.0,73,0.00,,,0.00,15.000000,,2013-07-15 01:53:00,
2013-07-14 21:02:00,78.0,69.0,-100.00,East,89,4.0,8.0,73,0.00,,,0.00,15.000000,,2013-07-15 02:02:00,
2013-07-14 21:22:00,74.0,70.0,-100.00,SSE,151,5.0,12.0,87,0.04,,,0.04,1.000000,,2013-07-15 02:22:00,
2013-07-14 21:32:00,74.0,70.0,-100.00,SSE,151,5.0,12.0,87,0.04,,,0.04,1.000000,,2013-07-15 02:32:00,
2013-07-14 21:42:00,74.0,70.0,-100.00,SSE,151,5.0,12.0,87,0.04,,,0.04,1.000000,,2013-07-15 02:42:00,
2013-07-14 21:53:00,74.0,70.0,-100.00,SSE,151,5.0,12.0,87,0.04,,,0.04,1.000000,,2013-07-15 02:53:00,
2013-07-14 22:02:00,74.0,70.0,-100.00,SSE,151,5.0,12.0,87,0.04,,,0.04,1.000000,,2013-07-15 03:02:00,
2013-07-14 22:22:00,75.0,69.0,-100.00,SSE,163,4.0,15.0,82,0.00,,,0.04,0.000000,,2013-07-15 03:22:00,
2013-07-14 22:32:00,75.0,69.0,-100.00,SSE,163,4.0,15.0,82,0.00,,,0.04,0.000000,,2013-07-15 03:32:00,
2013-07-14 22:43:00,75.0,69.0,-100.00,SSE,163,4.0,15.0,82,0.00,,,0.04,0.000000,,2013-07-15 03:43:00,
2013-07-14 22:53:00,75.0,69.0,-100.00,SSE,163,4.0,15.0,82,0.00,,,0.04,0.000000,,2013-07-15 03:53:00,
2013-07-14 23:01:00,75.0,69.0,-100.00,SSE,163,4.0,15.0,82,0.00,,,0.04,0.000000,,2013-07-15 04:01:00,
2013-07-14 23:22:00,74.0,69.0,-100.00,WSW,251,1.0,6.0,85,0.00,,,0.04,0.000000,,2013-07-15 04:22:00,
2013-07-14 23:33:00,74.0,69.0,-100.00,WSW,251,1.0,6.0,85,0.00,,,0.04,0.000000,,2013-07-15 04:33:00,
2013-07-14 23:42:00,74.0,69.0,-100.00,WSW,251,1.0,6.0,85,0.00,,,0.04,0.000000,,2013-07-15 04:42:00,
2013-07-14 23:54:00,74.0,69.0,-100.00,WSW,251,1.0,6.0,85,0.00,,,0.04,0.000000,,2013-07-15 04:54:00,